Terminal Aerodrome Forecast
Issued by NWS Cleveland, OH

Home | Current Version | Previous Version | Text Only | Print | Product List | Glossary On
Versions: 1 2 3 4 5 6 7 8 9 10 11 12 13 14 15 16 17 18 19 20 21
000
FTUS41 KCLE 051127
TAFYNG
TAF
KYNG 051127Z 0512/0612 04006KT 4SM BR SCT008 OVC060
      TEMPO 0512/0515 2SM BR BKN008
     FM051500 02012KT P6SM SCT008 OVC012
     FM052000 02012G22KT P6SM OVC035
     FM060000 35012KT P6SM BKN050
     FM061000 35006KT P6SM SCT250=

USA.gov is the U.S. government's official web portal to all federal, state and local government web resources and services.